»·PEaware :: N12529 KAVX-KSAN

N12529 :: KAVX-KSAN

FLIGHT INFORMATION

Flight Status: Arrived
Operator: Privately registered:
United States
More flights under this callsign
Pilot: Eduardo Elias G. (24838)
Aircraft: CESSNA 172 SKYHAWK
(C172)
More flights by this aircraft type
Origin: KAVX Catalina
United States
Destination: KSAN San Diego Intl-Lindbergh
United States
More flights between these airports :: More routes between these airports
Route: CSTP57
File this flight plan on PilotEdge
Remarks: I-8 Rating
Altitude:
(Current/Filed)
5,000ft
Speed:
(Current/Filed)
120kts
Departed: 02-Feb-20 09:42 PM
Arrived: 02-Feb-20 10:45 PM
Distance/Time
Traveled:
74nm/1:03
Distance/Time
To Go:
Arrived

Flight Plot

Page will automatically refresh every two minutes.

Flight plan parsing failed; only flown route is shown


Map Options




Map Legend


Flown Route
Filed Route
Departure Airport
Arrival Airport
Navaid (VOR, NDB)
Fix

Horizontal Profiles

Position Reports

Time Latitude Longitude Heading Altitude Ground
Speed
02-Feb-20 21:22 33.403543 -118.415364 145 1605ft 0kts
02-Feb-20 21:23 33.403541 -118.415362 145 1605ft 0kts
02-Feb-20 21:24 33.403539 -118.415361 145 1605ft 0kts
02-Feb-20 21:25 33.403537 -118.415359 145 1605ft 0kts
02-Feb-20 21:26 33.403535 -118.415357 145 1605ft 0kts
02-Feb-20 21:27 33.403533 -118.415356 145 1605ft 0kts
02-Feb-20 21:28 33.403531 -118.415354 145 1605ft 0kts
02-Feb-20 21:29 33.403529 -118.415352 145 1605ft 0kts
02-Feb-20 21:30 33.403527 -118.415351 145 1605ft 0kts
02-Feb-20 21:31 33.403525 -118.415349 145 1605ft 0kts
02-Feb-20 21:32 33.403523 -118.415348 145 1605ft 0kts
02-Feb-20 21:33 33.403521 -118.415346 145 1605ft 0kts
02-Feb-20 21:34 33.403519 -118.415345 145 1605ft 0kts
02-Feb-20 21:35 33.403517 -118.415343 145 1605ft 0kts
02-Feb-20 21:36 33.403515 -118.415341 145 1605ft 0kts
02-Feb-20 21:37 33.403771 -118.415040 21 1605ft 0kts
02-Feb-20 21:38 33.405523 -118.414193 54 1605ft 11kts
02-Feb-20 21:39 33.407127 -118.411485 52 1605ft 0kts
02-Feb-20 21:40 33.407130 -118.411481 52 1605ft 0kts
02-Feb-20 21:41 33.406488 -118.413329 237 1605ft 46kts
02-Feb-20 21:42 33.393996 -118.433236 233 2162ft 76kts
02-Feb-20 21:43 33.377645 -118.445897 164 2912ft 80kts
02-Feb-20 21:44 33.369632 -118.419510 103 3525ft 92kts
02-Feb-20 21:45 33.366197 -118.387215 94 4035ft 102kts
02-Feb-20 21:46 33.365423 -118.352930 93 4565ft 100kts
02-Feb-20 21:47 33.361902 -118.320315 98 4990ft 113kts
02-Feb-20 21:48 33.356581 -118.279468 98 4995ft 131kts
02-Feb-20 21:49 33.350862 -118.235904 98 5000ft 132kts
02-Feb-20 21:50 33.345143 -118.192392 98 5002ft 133kts
02-Feb-20 21:51 33.339395 -118.148696 98 5002ft 133kts
02-Feb-20 21:52 33.333641 -118.104951 98 5002ft 133kts
02-Feb-20 21:54 33.327870 -118.061069 98 5002ft 133kts
02-Feb-20 21:55 33.322110 -118.017291 98 5002ft 133kts
02-Feb-20 21:56 33.316355 -117.973556 98 5002ft 133kts
02-Feb-20 21:57 33.310598 -117.929817 98 5002ft 133kts
02-Feb-20 21:58 33.304911 -117.885701 98 4969ft 134kts
02-Feb-20 21:59 33.299593 -117.842523 99 4971ft 133kts
02-Feb-20 22:00 33.292759 -117.798386 105 4972ft 132kts
02-Feb-20 22:01 33.285742 -117.754986 100 4972ft 133kts
02-Feb-20 22:02 33.279881 -117.712214 100 4973ft 133kts
02-Feb-20 22:03 33.273922 -117.667637 100 4972ft 133kts
02-Feb-20 22:04 33.268204 -117.624566 100 4974ft 133kts
02-Feb-20 22:05 33.262265 -117.579987 100 4973ft 134kts
02-Feb-20 22:06 33.256405 -117.536008 100 4973ft 134kts
02-Feb-20 22:07 33.250524 -117.491861 100 4972ft 134kts
02-Feb-20 22:08 33.244402 -117.447894 101 4952ft 135kts
02-Feb-20 22:09 33.234846 -117.405050 123 4945ft 132kts
02-Feb-20 22:10 33.216269 -117.366965 122 4947ft 132kts
02-Feb-20 22:11 33.197699 -117.328930 122 4946ft 132kts
02-Feb-20 22:11 33.182219 -117.297238 122 4946ft 132kts
02-Feb-20 22:13 33.160541 -117.252858 122 4946ft 132kts
02-Feb-20 22:14 33.141980 -117.214871 122 4947ft 132kts
02-Feb-20 22:14 33.126509 -117.183221 122 4946ft 132kts
02-Feb-20 22:16 33.104874 -117.138964 122 4946ft 132kts
02-Feb-20 22:17 33.086355 -117.101073 122 4946ft 131kts
02-Feb-20 22:17 33.071167 -117.069700 122 4972ft 128kts
02-Feb-20 22:19 33.050599 -117.026595 122 4976ft 128kts
02-Feb-20 22:19 33.035929 -116.995909 122 4977ft 128kts
02-Feb-20 22:20 33.018284 -116.959043 122 4976ft 127kts
02-Feb-20 22:21 33.000694 -116.922297 122 4976ft 127kts
02-Feb-20 22:22 32.983117 -116.885573 122 4975ft 127kts
02-Feb-20 22:23 32.965592 -116.848957 122 4976ft 127kts
02-Feb-20 22:24 32.946690 -116.813644 153 4967ft 123kts
02-Feb-20 22:25 32.914100 -116.817672 192 4979ft 119kts
02-Feb-20 22:26 32.881283 -116.825222 192 4977ft 119kts
02-Feb-20 22:27 32.848503 -116.832680 192 4975ft 121kts
02-Feb-20 22:28 32.815017 -116.840111 192 4976ft 122kts
02-Feb-20 22:29 32.781470 -116.847549 192 4976ft 122kts
02-Feb-20 22:30 32.747913 -116.854987 192 4976ft 122kts
02-Feb-20 22:31 32.714360 -116.862428 192 4977ft 122kts
02-Feb-20 22:32 32.681019 -116.870927 213 4965ft 122kts
02-Feb-20 22:33 32.668327 -116.906695 255 4587ft 122kts
02-Feb-20 22:34 32.676268 -116.946567 282 3909ft 126kts
02-Feb-20 22:35 32.683448 -116.982438 285 3386ft 97kts
02-Feb-20 22:36 32.690976 -117.010356 279 2922ft 76kts
02-Feb-20 22:37 32.695446 -117.034097 291 2796ft 64kts
02-Feb-20 22:38 32.701393 -117.058865 279 2640ft 90kts
02-Feb-20 22:39 32.708787 -117.087159 283 2142ft 81kts
02-Feb-20 22:40 32.713875 -117.111288 283 1626ft 74kts
02-Feb-20 22:41 32.719620 -117.134028 283 1207ft 72kts
02-Feb-20 22:42 32.725703 -117.157359 277 707ft 75kts
02-Feb-20 22:43 32.731661 -117.181709 279 62ft 71kts
02-Feb-20 22:44 32.734243 -117.192544 285 18ft 16kts
02-Feb-20 22:45 32.734033 -117.194851 172 18ft 0kts
02-Feb-20 22:46 32.733717 -117.194195 105 18ft 12kts
02-Feb-20 22:47 32.733142 -117.190449 9 18ft 8kts
02-Feb-20 22:48 32.734020 -117.187938 106 18ft 16kts
02-Feb-20 22:49 32.732813 -117.182801 104 18ft 10kts
02-Feb-20 22:50 32.732560 -117.179963 46 18ft 7kts
02-Feb-20 22:51 32.732682 -117.178436 91 18ft 4kts
02-Feb-20 22:52 32.732632 -117.177881 104 18ft 0kts

Navigation Log

Ident Type
Flight plan parsing failed, navigation log unavailable